Seattle, Washington
Current Conditions -  °F | °C
As of 11:53 AM on Friday 31 Oct 2014 (Local Time) from KBFI Reporting Station
Overcast Overcast  
Wind Chill: 55°   Ceiling: 6000
Heat Index: 55°   Visibility: 10mi
Dew Point: 49°   Wind: 7mph
Humidity: 80%   Direction: 210°SSW
Pressure: 29.82"   Gusts: NA
Location:  47.6°N, 122.32°W
Report Text: KBFI 311853Z 21006KT 10SM FEW015 BKN060 OVC080 13/09 A2982 RMK AO2 RAE41 SLP098 P0000 T01280094
Loading
Personal Weather Stations






























Interactive Weather Map
Tropical Storm Tracking
New forecast layout! Learn more

10-Day Weather Forecast

Advertisements
Track Severe Weather on mobile